createdAt,value
2019-01-26T00:00:40.376Z,22.40
2019-01-26T00:01:38.963Z,17.87
2019-01-26T00:01:40.404Z,23.20
2019-01-26T00:02:41.118Z,21.20
2019-01-26T00:03:40.407Z,22.10
2019-01-26T00:04:06.622Z,17.63
2019-01-26T00:04:40.425Z,22.20
2019-01-26T00:05:40.438Z,21.00
2019-01-26T00:06:34.237Z,16.47
2019-01-26T00:06:40.520Z,20.90
2019-01-26T00:07:40.464Z,21.70
2019-01-26T00:08:40.491Z,21.70
2019-01-26T00:09:02.443Z,17.87
2019-01-26T00:09:40.543Z,22.00
2019-01-26T00:10:40.513Z,22.80
2019-01-26T00:11:30.927Z,17.50
2019-01-26T00:11:40.519Z,22.30
2019-01-26T00:12:40.588Z,23.10
2019-01-26T00:13:40.589Z,22.90
2019-01-26T00:13:58.647Z,17.23
2019-01-26T00:14:40.560Z,22.60
2019-01-26T00:15:40.623Z,23.50
2019-01-26T00:16:26.497Z,17.33
2019-01-26T00:16:40.588Z,23.00
2019-01-26T00:17:40.605Z,21.60
2019-01-26T00:18:40.646Z,22.70
2019-01-26T00:18:54.125Z,18.30
2019-01-26T00:19:40.715Z,23.60
2019-01-26T00:20:40.646Z,23.30
2019-01-26T00:21:21.920Z,21.77
2019-01-26T00:21:40.704Z,24.40
2019-01-26T00:22:40.701Z,26.60
2019-01-26T00:23:40.688Z,26.70
2019-01-26T00:23:49.899Z,20.57
2019-01-26T00:24:40.735Z,25.60
2019-01-26T00:25:40.713Z,25.70
2019-01-26T00:26:17.792Z,18.97
2019-01-26T00:26:40.743Z,23.30
2019-01-26T00:27:40.740Z,23.40
2019-01-26T00:28:40.771Z,23.10
2019-01-26T00:28:45.937Z,18.23
2019-01-26T00:29:40.771Z,23.90
2019-01-26T00:30:40.779Z,23.80
2019-01-26T00:31:13.681Z,18.50
2019-01-26T00:31:40.795Z,24.00
2019-01-26T00:32:40.892Z,24.70
2019-01-26T00:33:43.266Z,17.20
2019-01-26T00:33:43.323Z,23.50
2019-01-26T00:34:40.852Z,24.70
2019-01-26T00:35:40.850Z,24.90
2019-01-26T00:36:11.690Z,19.07
2019-01-26T00:36:40.869Z,24.00
2019-01-26T00:37:40.881Z,24.10
2019-01-26T00:38:39.839Z,18.53
2019-01-26T00:38:40.900Z,24.90
2019-01-26T00:39:40.922Z,25.30
2019-01-26T00:40:40.917Z,25.40
2019-01-26T00:41:07.867Z,18.67
2019-01-26T00:41:40.955Z,24.70
2019-01-26T00:42:40.958Z,23.70
2019-01-26T00:43:35.491Z,19.17
2019-01-26T00:43:40.962Z,22.60
2019-01-26T00:44:41.020Z,24.60
2019-01-26T00:45:40.995Z,25.40
2019-01-26T00:46:03.769Z,17.80
2019-01-26T00:46:41.000Z,23.50
2019-01-26T00:47:41.024Z,23.30
2019-01-26T00:48:31.713Z,18.10
2019-01-26T00:48:41.040Z,22.60
2019-01-26T00:49:41.042Z,23.10
2019-01-26T00:50:41.102Z,23.20
2019-01-26T00:51:00.099Z,17.47
2019-01-26T00:51:41.093Z,23.10
2019-01-26T00:52:41.098Z,22.30
2019-01-26T00:53:28.387Z,16.47
2019-01-26T00:53:41.103Z,23.10
2019-01-26T00:54:41.133Z,23.20
2019-01-26T00:55:41.175Z,22.80
2019-01-26T00:55:56.565Z,17.93
2019-01-26T00:56:41.163Z,22.20
2019-01-26T00:57:41.154Z,22.90
2019-01-26T00:58:24.713Z,16.63
2019-01-26T00:58:41.183Z,21.50
2019-01-26T00:59:41.292Z,23.70
2019-01-26T01:00:41.207Z,23.10
2019-01-26T01:00:52.882Z,16.93
2019-01-26T01:01:41.212Z,22.60
2019-01-26T01:02:41.253Z,21.90
2019-01-26T01:03:21.030Z,16.93
2019-01-26T01:03:41.291Z,22.00
2019-01-26T01:04:41.258Z,22.30
2019-01-26T01:05:41.296Z,21.60
2019-01-26T01:05:48.981Z,17.87
2019-01-26T01:06:41.283Z,22.90
2019-01-26T01:07:41.440Z,23.00
2019-01-26T01:08:16.992Z,16.40
2019-01-26T01:08:41.318Z,22.80
2019-01-26T01:09:41.350Z,22.00
2019-01-26T01:10:41.339Z,21.80
2019-01-26T01:10:45.055Z,17.63
2019-01-26T01:11:41.455Z,22.70
2019-01-26T01:12:41.388Z,23.40
2019-01-26T01:13:13.052Z,17.93
2019-01-26T01:13:41.380Z,22.70
2019-01-26T01:14:41.406Z,23.20
2019-01-26T01:15:41.015Z,19.07
2019-01-26T01:15:41.478Z,22.10
2019-01-26T01:16:41.429Z,22.40
2019-01-26T01:17:41.430Z,23.00
2019-01-26T01:18:08.881Z,18.00
2019-01-26T01:18:41.453Z,22.70
2019-01-26T01:19:41.475Z,22.20
2019-01-26T01:20:36.668Z,17.20
2019-01-26T01:20:41.499Z,23.20
2019-01-26T01:21:41.511Z,23.20
2019-01-26T01:22:41.499Z,23.70
2019-01-26T01:23:04.795Z,18.83
2019-01-26T01:23:41.546Z,24.00
2019-01-26T01:24:41.538Z,24.30
2019-01-26T01:25:32.559Z,17.70
2019-01-26T01:25:41.548Z,23.40
2019-01-26T01:26:41.574Z,23.00
2019-01-26T01:27:41.606Z,22.30
2019-01-26T01:28:00.372Z,17.00
2019-01-26T01:28:41.589Z,22.00
2019-01-26T01:29:41.612Z,21.60
2019-01-26T01:30:28.084Z,16.67
2019-01-26T01:30:41.637Z,22.40
2019-01-26T01:31:41.637Z,22.20
2019-01-26T01:32:41.657Z,22.00
2019-01-26T01:32:55.842Z,17.43
2019-01-26T01:33:41.675Z,22.80
2019-01-26T01:34:41.707Z,21.00
2019-01-26T01:35:23.554Z,17.23
2019-01-26T01:35:41.680Z,21.40
2019-01-26T01:36:41.709Z,22.30
2019-01-26T01:37:41.721Z,20.90
2019-01-26T01:37:51.821Z,16.57
2019-01-26T01:38:41.740Z,21.20
2019-01-26T01:39:41.762Z,20.60
2019-01-26T01:40:19.547Z,16.93
2019-01-26T01:40:41.750Z,20.30
2019-01-26T01:41:41.767Z,22.00
2019-01-26T01:42:41.790Z,21.30
2019-01-26T01:42:47.233Z,15.67
2019-01-26T01:43:41.791Z,20.00
2019-01-26T01:44:41.814Z,20.50
2019-01-26T01:45:16.141Z,15.77
2019-01-26T01:45:41.842Z,20.70
2019-01-26T01:46:42.951Z,20.90
2019-01-26T01:47:41.917Z,19.40
2019-01-26T01:47:44.046Z,17.17
2019-01-26T01:48:41.861Z,20.50
2019-01-26T01:49:41.888Z,19.60
2019-01-26T01:50:11.949Z,16.70
2019-01-26T01:50:41.898Z,20.30
2019-01-26T01:51:41.906Z,19.10
2019-01-26T01:52:40.254Z,17.23
2019-01-26T01:52:42.000Z,20.80
2019-01-26T01:53:41.960Z,20.40
2019-01-26T01:54:41.955Z,20.00
2019-01-26T01:55:08.582Z,17.13
2019-01-26T01:55:41.979Z,21.20
2019-01-26T01:56:41.994Z,19.80
2019-01-26T01:57:39.209Z,15.63
2019-01-26T01:57:41.997Z,20.40
2019-01-26T01:58:42.002Z,21.40
2019-01-26T01:59:42.025Z,21.30
2019-01-26T02:00:11.687Z,16.17
2019-01-26T02:00:42.036Z,21.10
2019-01-26T02:01:42.046Z,22.30
2019-01-26T02:02:39.757Z,15.53
2019-01-26T02:02:42.061Z,21.40
2019-01-26T02:03:42.086Z,20.90
2019-01-26T02:04:42.149Z,19.50
2019-01-26T02:05:07.536Z,16.33
2019-01-26T02:05:42.112Z,20.80
2019-01-26T02:06:42.278Z,19.60
2019-01-26T02:07:35.891Z,16.10
2019-01-26T02:07:42.148Z,19.20
2019-01-26T02:08:42.162Z,19.60
2019-01-26T02:09:42.169Z,18.20
2019-01-26T02:10:04.574Z,16.50
2019-01-26T02:10:42.226Z,18.80
2019-01-26T02:11:42.187Z,19.30
2019-01-26T02:12:32.476Z,15.67
2019-01-26T02:12:42.217Z,19.90
2019-01-26T02:13:42.250Z,18.50
2019-01-26T02:14:42.245Z,18.60
2019-01-26T02:15:00.232Z,15.10
2019-01-26T02:15:42.359Z,17.80
2019-01-26T02:16:42.268Z,17.90
2019-01-26T02:17:27.975Z,15.93
2019-01-26T02:17:42.287Z,19.30
2019-01-26T02:18:42.287Z,18.30
2019-01-26T02:19:42.485Z,18.70
2019-01-26T02:19:55.862Z,16.07
2019-01-26T02:20:42.327Z,19.10
2019-01-26T02:21:42.342Z,18.40
2019-01-26T02:22:23.722Z,15.27
2019-01-26T02:22:42.353Z,16.80
2019-01-26T02:23:42.364Z,17.70
2019-01-26T02:24:42.404Z,17.10
2019-01-26T02:24:51.236Z,14.53
2019-01-26T02:25:42.404Z,17.20
2019-01-26T02:26:42.400Z,16.40
2019-01-26T02:27:19.132Z,14.83
2019-01-26T02:27:42.412Z,17.40
2019-01-26T02:28:42.509Z,17.30
2019-01-26T02:29:42.479Z,16.40
2019-01-26T02:29:47.492Z,16.13
2019-01-26T02:30:42.459Z,18.20
2019-01-26T02:31:42.500Z,17.80
2019-01-26T02:32:15.681Z,15.37
2019-01-26T02:32:42.500Z,17.40
2019-01-26T02:33:42.512Z,19.40
2019-01-26T02:34:42.526Z,19.10
2019-01-26T02:34:43.381Z,15.00
2019-01-26T02:35:42.547Z,19.20
2019-01-26T02:36:42.544Z,19.20
2019-01-26T02:37:11.517Z,16.27
2019-01-26T02:37:42.561Z,17.60
2019-01-26T02:38:42.569Z,18.90
2019-01-26T02:39:39.581Z,14.90
2019-01-26T02:39:42.632Z,18.00
2019-01-26T02:40:42.671Z,17.50
2019-01-26T02:41:42.636Z,18.80
2019-01-26T02:42:07.749Z,15.37
2019-01-26T02:42:42.655Z,17.50
2019-01-26T02:43:42.649Z,17.30
2019-01-26T02:44:35.251Z,15.03
2019-01-26T02:44:42.662Z,17.30
2019-01-26T02:45:42.691Z,18.00
2019-01-26T02:46:42.686Z,17.80
2019-01-26T02:47:03.506Z,14.03
2019-01-26T02:47:42.706Z,17.60
2019-01-26T02:48:42.713Z,18.10
2019-01-26T02:49:31.055Z,14.50
2019-01-26T02:49:42.780Z,16.80
2019-01-26T02:50:42.760Z,16.90
2019-01-26T02:51:42.813Z,17.50
2019-01-26T02:51:59.169Z,14.77
2019-01-26T02:52:42.768Z,18.60
2019-01-26T02:53:42.845Z,17.40
2019-01-26T02:54:27.069Z,13.30
2019-01-26T02:54:42.794Z,18.30
2019-01-26T02:55:42.817Z,17.50
2019-01-26T02:56:42.842Z,16.60
2019-01-26T02:56:54.976Z,14.33
2019-01-26T02:57:42.861Z,17.90
2019-01-26T02:58:42.869Z,17.70
2019-01-26T02:59:23.211Z,14.20
2019-01-26T02:59:42.899Z,17.60
2019-01-26T03:00:42.881Z,18.00
2019-01-26T03:01:42.914Z,16.70
2019-01-26T03:01:51.384Z,14.37
2019-01-26T03:02:42.936Z,17.40
2019-01-26T03:03:42.939Z,16.40
2019-01-26T03:04:19.450Z,14.63
2019-01-26T03:04:42.950Z,16.40
2019-01-26T03:05:42.959Z,16.80
2019-01-26T03:06:42.984Z,15.80
2019-01-26T03:06:47.547Z,13.67
2019-01-26T03:07:42.988Z,18.40
2019-01-26T03:08:43.048Z,16.50
2019-01-26T03:09:15.698Z,15.10
2019-01-26T03:09:43.032Z,16.40
2019-01-26T03:10:43.024Z,18.20
2019-01-26T03:11:43.076Z,17.20
2019-01-26T03:11:43.732Z,15.53
2019-01-26T03:12:43.058Z,16.40
2019-01-26T03:13:43.071Z,16.80
2019-01-26T03:14:11.422Z,14.37
2019-01-26T03:14:43.091Z,16.40
2019-01-26T03:15:43.108Z,16.30
2019-01-26T03:16:39.089Z,15.43
2019-01-26T03:16:43.115Z,16.40
2019-01-26T03:17:43.128Z,16.10
2019-01-26T03:18:43.142Z,16.20
2019-01-26T03:19:06.905Z,15.93
2019-01-26T03:19:43.158Z,16.10
2019-01-26T03:20:43.166Z,17.00
2019-01-26T03:21:35.017Z,15.27
2019-01-26T03:21:43.191Z,15.70
2019-01-26T03:22:43.245Z,16.20
2019-01-26T03:23:43.207Z,16.70
2019-01-26T03:24:02.886Z,15.43
2019-01-26T03:24:43.229Z,17.40
2019-01-26T03:25:43.281Z,17.40
2019-01-26T03:26:30.645Z,15.57
2019-01-26T03:26:43.259Z,17.50
2019-01-26T03:27:43.266Z,19.00
2019-01-26T03:28:43.286Z,17.10
2019-01-26T03:28:59.066Z,14.53
2019-01-26T03:29:43.308Z,16.40
2019-01-26T03:30:43.323Z,16.10
2019-01-26T03:31:27.222Z,14.80
2019-01-26T03:31:43.371Z,15.80
2019-01-26T03:32:43.344Z,17.00
2019-01-26T03:33:43.359Z,16.70
2019-01-26T03:33:55.084Z,15.03
2019-01-26T03:34:43.376Z,16.90
2019-01-26T03:35:43.381Z,16.80
2019-01-26T03:36:23.381Z,16.77
2019-01-26T03:36:43.397Z,16.50
2019-01-26T03:37:43.409Z,16.10
2019-01-26T03:38:43.555Z,17.20
2019-01-26T03:38:51.408Z,15.03
2019-01-26T03:39:43.437Z,16.60
2019-01-26T03:40:43.458Z,16.90
2019-01-26T03:41:19.071Z,15.27
2019-01-26T03:41:43.490Z,16.10
2019-01-26T03:42:43.522Z,16.00
2019-01-26T03:43:43.555Z,16.90
2019-01-26T03:43:46.879Z,14.87
2019-01-26T03:44:43.531Z,15.60
2019-01-26T03:45:43.525Z,15.50
2019-01-26T03:46:14.495Z,15.60
2019-01-26T03:46:43.536Z,17.20
2019-01-26T03:47:43.551Z,17.00
2019-01-26T03:48:42.361Z,14.40
2019-01-26T03:48:43.639Z,15.80
2019-01-26T03:49:43.582Z,14.80
2019-01-26T03:50:43.622Z,15.80
2019-01-26T03:51:10.224Z,15.00
2019-01-26T03:51:43.624Z,15.50
2019-01-26T03:52:43.631Z,14.90
2019-01-26T03:53:38.189Z,14.63
2019-01-26T03:53:43.666Z,15.50
2019-01-26T03:54:43.665Z,15.40
2019-01-26T03:55:43.672Z,15.20
2019-01-26T03:56:06.002Z,13.70
2019-01-26T03:56:43.688Z,14.90
2019-01-26T03:57:43.715Z,16.10
2019-01-26T03:58:33.939Z,13.50
2019-01-26T03:58:43.723Z,16.10
2019-01-26T03:59:43.734Z,15.20
2019-01-26T04:00:43.738Z,15.30
2019-01-26T04:01:01.731Z,14.17
2019-01-26T04:01:43.799Z,14.80
2019-01-26T04:02:43.770Z,14.70
2019-01-26T04:03:29.564Z,14.30
2019-01-26T04:03:43.794Z,15.10
2019-01-26T04:04:43.818Z,15.40
2019-01-26T04:05:43.823Z,15.10
2019-01-26T04:06:43.841Z,15.60
2019-01-26T04:07:43.841Z,15.20
2019-01-26T04:08:35.051Z,14.43
2019-01-26T04:08:43.878Z,14.90
2019-01-26T04:09:43.881Z,13.80
2019-01-26T04:10:43.908Z,15.00
2019-01-26T04:11:02.682Z,12.37
2019-01-26T04:11:43.909Z,14.30
2019-01-26T04:12:43.946Z,15.00
2019-01-26T04:13:30.743Z,14.40
2019-01-26T04:13:43.938Z,13.70
2019-01-26T04:14:43.965Z,13.90
2019-01-26T04:15:43.975Z,14.90
2019-01-26T04:16:00.751Z,13.90
2019-01-26T04:16:43.989Z,14.60
2019-01-26T04:17:43.996Z,14.70
2019-01-26T04:18:28.689Z,14.17
2019-01-26T04:18:44.024Z,14.90
2019-01-26T04:19:44.030Z,14.00
2019-01-26T04:20:44.042Z,13.80
2019-01-26T04:20:56.585Z,14.00
2019-01-26T04:21:44.077Z,14.10
2019-01-26T04:22:44.080Z,13.90
2019-01-26T04:23:24.530Z,12.17
2019-01-26T04:23:44.073Z,13.30
2019-01-26T04:24:44.087Z,13.70
2019-01-26T04:25:44.104Z,13.00
2019-01-26T04:25:52.835Z,13.00
2019-01-26T04:26:44.116Z,12.80
2019-01-26T04:27:44.130Z,13.40
2019-01-26T04:28:20.438Z,12.87
2019-01-26T04:28:44.147Z,13.40
2019-01-26T04:29:44.159Z,12.20
2019-01-26T04:30:44.206Z,13.10
2019-01-26T04:30:48.366Z,12.43
2019-01-26T04:31:44.198Z,13.10
2019-01-26T04:32:44.216Z,13.00
2019-01-26T04:33:15.987Z,12.07
2019-01-26T04:33:44.216Z,13.00
2019-01-26T04:34:44.235Z,12.20
2019-01-26T04:35:43.713Z,13.03
2019-01-26T04:35:44.245Z,11.90
2019-01-26T04:36:44.260Z,12.90
2019-01-26T04:37:44.276Z,12.20
2019-01-26T04:38:11.468Z,12.33
2019-01-26T04:38:44.318Z,12.00
2019-01-26T04:39:44.310Z,12.80
2019-01-26T04:40:39.607Z,12.33
2019-01-26T04:40:44.333Z,13.40
2019-01-26T04:41:44.355Z,12.60
2019-01-26T04:42:44.345Z,12.40
2019-01-26T04:43:07.257Z,12.67
2019-01-26T04:43:44.363Z,12.50
2019-01-26T04:44:44.412Z,13.80
2019-01-26T04:45:35.164Z,11.57
2019-01-26T04:45:44.394Z,13.40
2019-01-26T04:46:44.407Z,13.40
2019-01-26T04:47:44.423Z,13.40
2019-01-26T04:48:03.017Z,13.13
2019-01-26T04:48:44.444Z,14.60
2019-01-26T04:49:44.457Z,14.00
2019-01-26T04:50:30.763Z,13.37
2019-01-26T04:50:44.490Z,14.10
2019-01-26T04:51:44.475Z,15.70
2019-01-26T04:52:44.501Z,15.70
2019-01-26T04:52:58.524Z,12.80
2019-01-26T04:53:44.521Z,16.80
2019-01-26T04:54:44.525Z,15.10
2019-01-26T04:55:26.604Z,12.77
2019-01-26T04:55:44.533Z,16.60
2019-01-26T04:56:44.569Z,16.00
2019-01-26T04:57:44.637Z,15.40
2019-01-26T04:57:54.871Z,13.63
2019-01-26T04:58:44.586Z,14.80
2019-01-26T04:59:44.590Z,14.60
2019-01-26T05:00:24.819Z,13.80
2019-01-26T05:00:44.625Z,14.60
2019-01-26T05:01:44.627Z,14.30
2019-01-26T05:02:44.682Z,12.60
2019-01-26T05:02:52.753Z,12.40
2019-01-26T05:03:44.677Z,12.80
2019-01-26T05:04:44.737Z,13.00
2019-01-26T05:05:21.125Z,13.50
2019-01-26T05:05:44.689Z,13.70
2019-01-26T05:06:44.725Z,13.10
2019-01-26T05:07:44.711Z,13.70
2019-01-26T05:07:48.887Z,12.77
2019-01-26T05:08:44.726Z,13.40
2019-01-26T05:09:44.741Z,13.30
2019-01-26T05:10:17.063Z,12.90
2019-01-26T05:10:44.756Z,14.10
2019-01-26T05:11:44.781Z,14.10
2019-01-26T05:12:44.627Z,12.97
2019-01-26T05:12:44.802Z,14.80
2019-01-26T05:13:44.855Z,14.60
2019-01-26T05:14:44.847Z,13.10
2019-01-26T05:15:12.923Z,11.70
2019-01-26T05:15:44.867Z,13.20
2019-01-26T05:16:44.891Z,14.00
2019-01-26T05:17:40.945Z,12.57
2019-01-26T05:17:44.863Z,14.00
2019-01-26T05:18:44.947Z,12.90
2019-01-26T05:19:44.886Z,12.40
2019-01-26T05:20:10.890Z,11.47
2019-01-26T05:20:44.901Z,13.10
2019-01-26T05:21:44.920Z,13.10
2019-01-26T05:22:38.467Z,11.87
2019-01-26T05:22:44.945Z,12.70
2019-01-26T05:23:44.992Z,13.20
2019-01-26T05:24:45.029Z,13.70
2019-01-26T05:25:06.554Z,11.97
2019-01-26T05:25:44.983Z,14.40
2019-01-26T05:26:45.000Z,14.60
2019-01-26T05:27:34.506Z,13.87
2019-01-26T05:27:45.013Z,13.00
2019-01-26T05:28:45.182Z,14.50
2019-01-26T05:29:45.133Z,14.20
2019-01-26T05:30:24.450Z,12.80
2019-01-26T05:30:45.331Z,13.50
2019-01-26T05:31:45.066Z,14.10
2019-01-26T05:32:45.219Z,14.90
2019-01-26T05:32:52.946Z,13.67
2019-01-26T05:33:45.144Z,15.30
2019-01-26T05:34:45.133Z,15.40
2019-01-26T05:35:22.115Z,13.20
2019-01-26T05:35:45.288Z,14.70
2019-01-26T05:36:45.231Z,15.00
2019-01-26T05:37:45.145Z,15.00
2019-01-26T05:37:50.808Z,13.27
2019-01-26T05:38:45.197Z,14.70
2019-01-26T05:39:45.233Z,14.40
2019-01-26T05:40:19.163Z,12.77
2019-01-26T05:40:45.256Z,13.80
2019-01-26T05:41:45.224Z,15.80
2019-01-26T05:42:45.279Z,15.50
2019-01-26T05:42:47.531Z,14.07
2019-01-26T05:43:45.248Z,15.60
2019-01-26T05:44:45.278Z,15.90
2019-01-26T05:45:17.381Z,14.87
2019-01-26T05:45:45.272Z,16.20
2019-01-26T05:46:45.317Z,16.10
2019-01-26T05:47:49.039Z,15.60
2019-01-26T05:47:49.121Z,13.53
2019-01-26T05:48:45.309Z,15.40
2019-01-26T05:49:45.333Z,14.90
2019-01-26T05:50:20.796Z,13.43
2019-01-26T05:50:45.390Z,15.20
2019-01-26T05:51:45.354Z,14.40
2019-01-26T05:52:45.364Z,13.40
2019-01-26T05:52:48.554Z,12.47
2019-01-26T05:53:45.375Z,13.80
2019-01-26T05:54:45.399Z,13.10
2019-01-26T05:55:16.285Z,11.83
2019-01-26T05:55:45.417Z,13.10
2019-01-26T05:56:45.423Z,13.00
2019-01-26T05:57:44.089Z,12.03
2019-01-26T05:57:45.483Z,12.60
2019-01-26T05:58:45.460Z,13.80
2019-01-26T05:59:45.466Z,13.20
2019-01-26T06:00:13.795Z,12.30
2019-01-26T06:00:45.504Z,13.10
2019-01-26T06:01:45.493Z,13.70
2019-01-26T06:02:41.867Z,12.30
2019-01-26T06:02:45.557Z,12.80
2019-01-26T06:03:45.527Z,13.50
2019-01-26T06:04:45.575Z,14.30
2019-01-26T06:05:09.647Z,12.47
2019-01-26T06:05:45.581Z,13.40
2019-01-26T06:06:45.573Z,13.70
2019-01-26T06:07:39.979Z,12.53
2019-01-26T06:07:45.610Z,13.60
2019-01-26T06:08:45.600Z,13.50
2019-01-26T06:09:45.646Z,13.50
2019-01-26T06:10:07.881Z,12.33
2019-01-26T06:10:45.627Z,14.00
2019-01-26T06:11:45.654Z,14.10
2019-01-26T06:12:35.791Z,12.50
2019-01-26T06:12:45.655Z,13.30
2019-01-26T06:13:45.683Z,14.00
2019-01-26T06:14:45.680Z,15.00
2019-01-26T06:15:04.528Z,12.50
2019-01-26T06:15:45.734Z,14.00
2019-01-26T06:16:45.721Z,13.40
2019-01-26T06:17:32.329Z,12.50
2019-01-26T06:17:45.753Z,14.60
2019-01-26T06:18:45.742Z,14.20
2019-01-26T06:19:45.772Z,13.60
2019-01-26T06:20:00.183Z,13.37
2019-01-26T06:20:45.765Z,26.60
2019-01-26T06:21:45.801Z,15.90
2019-01-26T06:22:27.957Z,15.17
2019-01-26T06:22:45.829Z,18.50
2019-01-26T06:23:46.823Z,18.00
2019-01-26T06:24:45.835Z,19.10
2019-01-26T06:24:55.832Z,14.83
2019-01-26T06:25:45.873Z,19.60
2019-01-26T06:26:45.864Z,20.00
2019-01-26T06:27:25.223Z,14.83
2019-01-26T06:27:45.879Z,18.80
2019-01-26T06:28:45.897Z,18.70
2019-01-26T06:29:45.913Z,20.20
2019-01-26T06:29:53.290Z,15.03
2019-01-26T06:30:45.921Z,20.20
2019-01-26T06:31:45.924Z,19.10
2019-01-26T06:32:21.154Z,14.90
2019-01-26T06:32:45.967Z,19.80
2019-01-26T06:33:45.971Z,19.30
2019-01-26T06:34:45.979Z,20.70
2019-01-26T06:34:50.191Z,16.83
2019-01-26T06:35:45.997Z,21.40
2019-01-26T06:36:46.000Z,19.40
2019-01-26T06:37:18.219Z,15.93
2019-01-26T06:37:46.041Z,20.10
2019-01-26T06:38:46.039Z,19.90
2019-01-26T06:39:46.047Z,19.70
2019-01-26T06:39:46.093Z,13.40
2019-01-26T06:40:46.058Z,19.90
2019-01-26T06:41:46.070Z,20.20
2019-01-26T06:42:13.816Z,18.10
2019-01-26T06:42:46.091Z,42.50
2019-01-26T06:43:46.105Z,25.90
2019-01-26T06:44:41.820Z,15.23
2019-01-26T06:44:46.113Z,23.10
2019-01-26T06:45:46.134Z,20.30
2019-01-26T06:46:46.234Z,30.00
2019-01-26T06:47:09.751Z,15.07
2019-01-26T06:47:46.183Z,42.60
2019-01-26T06:48:46.181Z,22.30
2019-01-26T06:49:37.544Z,14.93
2019-01-26T06:49:46.270Z,21.60
2019-01-26T06:50:46.270Z,22.10
2019-01-26T06:51:46.256Z,24.60
2019-01-26T06:52:05.868Z,14.53
2019-01-26T06:52:46.229Z,23.00
2019-01-26T06:53:46.262Z,22.30
2019-01-26T06:54:33.795Z,16.47
2019-01-26T06:54:46.279Z,24.10
2019-01-26T06:55:46.266Z,25.30
2019-01-26T06:56:46.290Z,20.30
2019-01-26T06:57:01.591Z,12.80
2019-01-26T06:57:46.305Z,18.90
2019-01-26T06:58:46.322Z,18.40
2019-01-26T06:59:29.212Z,14.23
2019-01-26T06:59:46.334Z,19.70
2019-01-26T07:00:46.371Z,19.60
2019-01-26T07:01:46.367Z,32.00
2019-01-26T07:01:57.196Z,24.40
2019-01-26T07:02:46.416Z,24.60
2019-01-26T07:03:46.431Z,22.10
2019-01-26T07:04:35.594Z,17.67
2019-01-26T07:04:46.424Z,17.90
2019-01-26T07:05:46.424Z,19.00
2019-01-26T07:06:46.447Z,19.20
2019-01-26T07:07:08.678Z,14.43
2019-01-26T07:07:46.440Z,17.10
2019-01-26T07:08:46.457Z,13.40
2019-01-26T07:09:36.442Z,10.53
2019-01-26T07:09:46.482Z,14.00
2019-01-26T07:10:46.490Z,13.30
2019-01-26T07:11:46.536Z,11.50
2019-01-26T07:12:04.305Z,11.00
2019-01-26T07:12:46.516Z,10.90
2019-01-26T07:13:46.560Z,11.40
2019-01-26T07:14:31.992Z,9.30
2019-01-26T07:14:46.540Z,10.30
2019-01-26T07:15:46.577Z,10.30
2019-01-26T07:16:46.617Z,10.30
2019-01-26T07:16:59.729Z,10.03
2019-01-26T07:17:46.594Z,9.20
2019-01-26T07:18:46.665Z,9.80
2019-01-26T07:19:27.355Z,8.37
2019-01-26T07:19:46.623Z,8.60
2019-01-26T07:20:46.643Z,8.00
2019-01-26T07:21:46.643Z,8.60
2019-01-26T07:21:55.171Z,8.97
2019-01-26T07:22:46.716Z,8.20
2019-01-26T07:23:46.702Z,8.60
2019-01-26T07:24:23.033Z,8.07
2019-01-26T07:24:46.698Z,8.20
2019-01-26T07:25:46.720Z,9.10
2019-01-26T07:26:46.740Z,7.60
2019-01-26T07:26:50.901Z,7.07
2019-01-26T07:27:46.756Z,7.10
2019-01-26T07:28:46.768Z,7.70
2019-01-26T07:29:18.956Z,7.90
2019-01-26T07:29:46.766Z,9.40
2019-01-26T07:30:46.780Z,8.20
2019-01-26T07:31:46.824Z,8.30
2019-01-26T07:31:47.052Z,8.20
2019-01-26T07:32:46.831Z,8.70
2019-01-26T07:33:46.815Z,9.40
2019-01-26T07:34:15.198Z,7.60
2019-01-26T07:34:46.837Z,9.10
2019-01-26T07:35:46.877Z,7.70
2019-01-26T07:36:42.804Z,8.97
2019-01-26T07:36:46.881Z,7.70
2019-01-26T07:37:46.898Z,9.40
2019-01-26T07:38:46.901Z,8.50
2019-01-26T07:39:10.538Z,8.60
2019-01-26T07:39:46.917Z,8.60
2019-01-26T07:40:46.942Z,9.10
2019-01-26T07:41:38.394Z,7.60
2019-01-26T07:41:46.945Z,8.80
2019-01-26T07:42:46.973Z,8.20
2019-01-26T07:43:47.025Z,8.60
2019-01-26T07:44:06.272Z,8.27
2019-01-26T07:44:46.995Z,8.20
2019-01-26T07:45:47.019Z,8.20
2019-01-26T07:46:34.147Z,8.43
2019-01-26T07:46:47.019Z,8.10
2019-01-26T07:47:47.059Z,7.80
2019-01-26T07:48:47.060Z,7.70
2019-01-26T07:49:01.984Z,8.40
2019-01-26T07:49:47.066Z,8.80
2019-01-26T07:50:47.086Z,7.30
2019-01-26T07:51:29.773Z,8.07
2019-01-26T07:51:47.098Z,7.70
2019-01-26T07:52:47.155Z,7.50
2019-01-26T07:53:47.360Z,7.40
2019-01-26T07:53:57.419Z,7.73
2019-01-26T07:54:47.143Z,7.30
2019-01-26T07:55:47.203Z,7.20
2019-01-26T07:56:25.273Z,7.57
2019-01-26T07:56:47.188Z,7.50
2019-01-26T07:57:47.218Z,7.30
2019-01-26T07:58:47.280Z,8.10
2019-01-26T07:58:53.269Z,8.10
2019-01-26T07:59:47.227Z,7.10
2019-01-26T08:00:47.241Z,11.60
2019-01-26T08:01:20.962Z,11.60
2019-01-26T08:01:47.248Z,11.00
2019-01-26T08:02:47.281Z,11.50
2019-01-26T08:03:47.304Z,11.10
2019-01-26T08:03:48.965Z,10.03
2019-01-26T08:04:47.311Z,10.70
2019-01-26T08:05:47.347Z,9.00
2019-01-26T08:06:16.850Z,8.83
2019-01-26T08:06:47.355Z,8.70
2019-01-26T08:07:47.374Z,8.80
2019-01-26T08:08:44.902Z,8.97
2019-01-26T08:08:47.359Z,9.20
2019-01-26T08:09:47.380Z,10.10
2019-01-26T08:10:47.395Z,11.00
2019-01-26T08:11:12.606Z,9.53
2019-01-26T08:11:47.429Z,11.10
2019-01-26T08:12:47.466Z,10.10
2019-01-26T08:13:41.855Z,10.27
2019-01-26T08:13:47.439Z,10.70
2019-01-26T08:14:47.451Z,10.60
2019-01-26T08:15:47.526Z,11.40
2019-01-26T08:16:09.627Z,10.97
2019-01-26T08:16:47.539Z,13.90
2019-01-26T08:17:47.537Z,11.40
2019-01-26T08:18:37.901Z,9.33
2019-01-26T08:18:47.518Z,9.60
2019-01-26T08:19:47.567Z,10.00
2019-01-26T08:20:47.577Z,11.10
2019-01-26T08:21:05.808Z,9.13
2019-01-26T08:21:47.576Z,10.10
2019-01-26T08:22:47.655Z,9.80
2019-01-26T08:23:34.247Z,9.70
2019-01-26T08:23:47.596Z,11.40
2019-01-26T08:24:47.679Z,10.60
2019-01-26T08:25:47.626Z,10.10
2019-01-26T08:26:02.243Z,10.70
2019-01-26T08:26:47.651Z,10.60
2019-01-26T08:27:47.687Z,9.60
2019-01-26T08:28:30.544Z,8.30
2019-01-26T08:28:47.694Z,10.00
2019-01-26T08:29:47.824Z,9.30
2019-01-26T08:30:47.715Z,9.60
2019-01-26T08:30:58.449Z,8.30
2019-01-26T08:31:47.726Z,9.40
2019-01-26T08:32:47.731Z,9.70
2019-01-26T08:33:26.344Z,8.17
2019-01-26T08:33:47.756Z,10.00
2019-01-26T08:34:47.775Z,9.80
2019-01-26T08:35:47.784Z,8.90
2019-01-26T08:35:54.184Z,8.97
2019-01-26T08:36:47.871Z,9.10
2019-01-26T08:37:47.821Z,9.60
2019-01-26T08:38:22.191Z,9.10
2019-01-26T08:38:47.836Z,9.30
2019-01-26T08:39:47.869Z,9.30
2019-01-26T08:40:47.873Z,9.40
2019-01-26T08:40:50.017Z,7.77
2019-01-26T08:41:47.890Z,9.00
2019-01-26T08:42:47.897Z,8.80
2019-01-26T08:43:18.030Z,8.67
2019-01-26T08:43:47.910Z,9.70
2019-01-26T08:44:47.925Z,9.90
2019-01-26T08:45:45.830Z,11.00
2019-01-26T08:45:47.949Z,10.30
2019-01-26T08:46:47.957Z,12.00
2019-01-26T08:47:48.018Z,9.90
2019-01-26T08:48:13.536Z,8.17
2019-01-26T08:48:47.979Z,9.70
2019-01-26T08:49:47.998Z,9.10
2019-01-26T08:50:41.207Z,9.60
2019-01-26T08:50:48.016Z,9.10
2019-01-26T08:51:48.053Z,10.00
2019-01-26T08:52:48.089Z,9.60
2019-01-26T08:53:08.935Z,9.40
2019-01-26T08:53:48.074Z,11.00
2019-01-26T08:54:48.084Z,9.50
2019-01-26T08:55:37.530Z,7.73
2019-01-26T08:55:48.107Z,9.00
2019-01-26T08:56:48.141Z,8.40
2019-01-26T08:57:48.125Z,8.20
2019-01-26T08:58:05.379Z,8.37
2019-01-26T08:58:48.158Z,8.80
2019-01-26T08:59:48.219Z,9.80
2019-01-26T09:00:33.508Z,9.53
2019-01-26T09:00:48.176Z,10.00
2019-01-26T09:01:48.205Z,10.10
2019-01-26T09:02:48.216Z,11.70
2019-01-26T09:03:20.681Z,10.03
2019-01-26T09:03:48.249Z,11.30
2019-01-26T09:04:48.234Z,9.60
2019-01-26T09:05:48.273Z,9.10
2019-01-26T09:06:13.429Z,7.27
2019-01-26T09:06:48.264Z,7.60
2019-01-26T09:07:48.306Z,7.80
2019-01-26T09:08:41.694Z,7.67
2019-01-26T09:08:48.357Z,7.50
2019-01-26T09:09:48.343Z,7.70
2019-01-26T09:10:48.334Z,7.50
2019-01-26T09:11:09.387Z,6.93
2019-01-26T09:11:48.353Z,7.60
2019-01-26T09:12:48.375Z,6.50
2019-01-26T09:13:37.129Z,6.87
2019-01-26T09:13:48.382Z,6.50